100LL.CA
Aviation Fuel Pricing for Canadians
Please upgrade your browser - Tested with IE9, FireFox, Chrome, Safari

Fuel Airports Other Help
Prices Economy Info List METAR/TAF Kneeboard Help

Reference Airport: FORT ST.JOHN, BC
N 56 14 18  W 120 44 25
Provinces to show:

CYXJ FORT ST.JOHN, BC
WEATHER
METARCYXJ 221500Z 10007KT 15SM FEW090 FEW210 18/07 A2976 RMK AC1CI1 AC TR SLP077 DENSITY ALT 3400FT
TAFTAF CYXJ 221240Z 2213/2301 10008KT P6SM FEW220 BECMG 2217/2219 23012KT SCT140 BKN200 FM222100 23015KT P6SM BKN140 BKN180 FM230000 19012KT P6SM SCT080 BKN230 RMK NXT FCST BY 221900Z
OTHER SITES

FlightAware

FltPlan

Google Maps

SkyVector
FUEL
FBO 100LL
member
100LL
public
JETA MOGAS
Executive Flight Center (2024-06-24)2.6042.133
  Note: http://www.efcaviation.ca/
Canada Flight Supplement - CYXJ
(opens in new tab/window)


Please Send Updates!

Desktop Version ]  [ Mobile Version ]  [ Disclaimer ]